sensor_id;sensor_type;location;lat;lon;timestamp;pressure;altitude;pressure_sealevel;temperature
77414;BMP280;66486;49.992;19.164;2023-12-20T00:00:08;98283.53;;;7.61
77414;BMP280;66486;49.992;19.164;2023-12-20T00:02:35;98274.91;;;7.77
77414;BMP280;66486;49.992;19.164;2023-12-20T00:05:02;98272.78;;;7.91
77414;BMP280;66486;49.992;19.164;2023-12-20T00:07:28;98265.44;;;7.95
77414;BMP280;66486;49.992;19.164;2023-12-20T00:09:54;98264.69;;;7.95
77414;BMP280;66486;49.992;19.164;2023-12-20T00:12:20;98264.16;;;8.03
77414;BMP280;66486;49.992;19.164;2023-12-20T00:14:46;98257.69;;;8.01
77414;BMP280;66486;49.992;19.164;2023-12-20T00:17:12;98261.34;;;8.10
77414;BMP280;66486;49.992;19.164;2023-12-20T00:19:39;98257.94;;;8.06
77414;BMP280;66486;49.992;19.164;2023-12-20T00:22:06;98245.41;;;8.03
77414;BMP280;66486;49.992;19.164;2023-12-20T00:24:31;98238.00;;;8.11
77414;BMP280;66486;49.992;19.164;2023-12-20T00:26:58;98237.78;;;8.02
77414;BMP280;66486;49.992;19.164;2023-12-20T00:29:23;98243.09;;;8.05
77414;BMP280;66486;49.992;19.164;2023-12-20T00:31:50;98237.66;;;8.09
77414;BMP280;66486;49.992;19.164;2023-12-20T00:34:15;98242.44;;;7.98
77414;BMP280;66486;49.992;19.164;2023-12-20T00:36:42;98236.38;;;8.17
77414;BMP280;66486;49.992;19.164;2023-12-20T00:39:08;98239.19;;;8.06
77414;BMP280;66486;49.992;19.164;2023-12-20T00:41:34;98232.69;;;8.07
77414;BMP280;66486;49.992;19.164;2023-12-20T00:44:00;98230.78;;;8.08
77414;BMP280;66486;49.992;19.164;2023-12-20T00:46:26;98220.41;;;8.10
77414;BMP280;66486;49.992;19.164;2023-12-20T00:48:52;98225.03;;;8.09
77414;BMP280;66486;49.992;19.164;2023-12-20T00:51:18;98229.97;;;8.11
77414;BMP280;66486;49.992;19.164;2023-12-20T00:53:44;98215.59;;;8.01
77414;BMP280;66486;49.992;19.164;2023-12-20T00:56:12;98230.59;;;7.95
77414;BMP280;66486;49.992;19.164;2023-12-20T00:58:38;98230.38;;;7.86
77414;BMP280;66486;49.992;19.164;2023-12-20T01:01:04;98233.88;;;7.83
77414;BMP280;66486;49.992;19.164;2023-12-20T01:03:30;98226.47;;;7.91
77414;BMP280;66486;49.992;19.164;2023-12-20T01:05:56;98224.97;;;7.90
77414;BMP280;66486;49.992;19.164;2023-12-20T01:08:22;98212.88;;;8.05
77414;BMP280;66486;49.992;19.164;2023-12-20T01:10:49;98205.59;;;8.05
77414;BMP280;66486;49.992;19.164;2023-12-20T01:13:15;98201.25;;;8.11
77414;BMP280;66486;49.992;19.164;2023-12-20T01:15:42;98198.25;;;8.09
77414;BMP280;66486;49.992;19.164;2023-12-20T01:18:07;98190.69;;;8.04
77414;BMP280;66486;49.992;19.164;2023-12-20T01:20:34;98195.78;;;7.95
77414;BMP280;66486;49.992;19.164;2023-12-20T01:23:00;98194.97;;;7.98
77414;BMP280;66486;49.992;19.164;2023-12-20T01:25:26;98194.91;;;7.79
77414;BMP280;66486;49.992;19.164;2023-12-20T01:27:53;98185.78;;;7.76
77414;BMP280;66486;49.992;19.164;2023-12-20T01:30:19;98182.31;;;7.79
77414;BMP280;66486;49.992;19.164;2023-12-20T01:32:45;98173.13;;;7.80
77414;BMP280;66486;49.992;19.164;2023-12-20T01:35:11;98155.69;;;7.92
77414;BMP280;66486;49.992;19.164;2023-12-20T01:37:38;98151.50;;;7.91
77414;BMP280;66486;49.992;19.164;2023-12-20T01:40:05;98149.41;;;7.79
77414;BMP280;66486;49.992;19.164;2023-12-20T01:42:31;98154.13;;;7.71
77414;BMP280;66486;49.992;19.164;2023-12-20T01:44:57;98148.06;;;7.67
77414;BMP280;66486;49.992;19.164;2023-12-20T01:47:23;98146.47;;;7.73
77414;BMP280;66486;49.992;19.164;2023-12-20T01:49:50;98142.94;;;7.76
77414;BMP280;66486;49.992;19.164;2023-12-20T01:52:16;98156.47;;;7.69
77414;BMP280;66486;49.992;19.164;2023-12-20T01:54:43;98143.88;;;7.66
77414;BMP280;66486;49.992;19.164;2023-12-20T01:57:09;98133.00;;;7.53
77414;BMP280;66486;49.992;19.164;2023-12-20T01:59:37;98128.41;;;7.54
77414;BMP280;66486;49.992;19.164;2023-12-20T02:02:05;98127.66;;;7.53
77414;BMP280;66486;49.992;19.164;2023-12-20T02:04:31;98126.41;;;7.62
77414;BMP280;66486;49.992;19.164;2023-12-20T02:06:58;98130.03;;;7.71
77414;BMP280;66486;49.992;19.164;2023-12-20T02:09:25;98124.59;;;7.75
77414;BMP280;66486;49.992;19.164;2023-12-20T02:11:52;98115.44;;;7.76
77414;BMP280;66486;49.992;19.164;2023-12-20T02:14:18;98101.47;;;7.65
77414;BMP280;66486;49.992;19.164;2023-12-20T02:16:44;98095.09;;;7.59
77414;BMP280;66486;49.992;19.164;2023-12-20T02:19:14;98098.97;;;7.54
77414;BMP280;66486;49.992;19.164;2023-12-20T02:21:40;98103.56;;;7.53
77414;BMP280;66486;49.992;19.164;2023-12-20T02:24:07;98099.44;;;7.49
77414;BMP280;66486;49.992;19.164;2023-12-20T02:26:33;98111.97;;;7.52
77414;BMP280;66486;49.992;19.164;2023-12-20T02:29:00;98110.78;;;7.57
77414;BMP280;66486;49.992;19.164;2023-12-20T02:31:26;98113.34;;;7.40
77414;BMP280;66486;49.992;19.164;2023-12-20T02:33:53;98112.91;;;7.19
77414;BMP280;66486;49.992;19.164;2023-12-20T02:36:19;98114.38;;;7.23
77414;BMP280;66486;49.992;19.164;2023-12-20T02:38:45;98105.97;;;7.25
77414;BMP280;66486;49.992;19.164;2023-12-20T02:41:11;98110.66;;;7.17
77414;BMP280;66486;49.992;19.164;2023-12-20T02:43:39;98116.34;;;7.19
77414;BMP280;66486;49.992;19.164;2023-12-20T02:46:04;98121.69;;;7.19
77414;BMP280;66486;49.992;19.164;2023-12-20T02:48:31;98114.97;;;7.08
77414;BMP280;66486;49.992;19.164;2023-12-20T02:50:57;98105.13;;;7.05
77414;BMP280;66486;49.992;19.164;2023-12-20T02:53:23;98100.88;;;7.30
77414;BMP280;66486;49.992;19.164;2023-12-20T02:55:49;98105.56;;;7.00
77414;BMP280;66486;49.992;19.164;2023-12-20T02:58:15;98099.03;;;7.01
77414;BMP280;66486;49.992;19.164;2023-12-20T03:00:41;98107.88;;;6.97
77414;BMP280;66486;49.992;19.164;2023-12-20T03:03:07;98108.28;;;6.96
77414;BMP280;66486;49.992;19.164;2023-12-20T03:05:33;98109.34;;;7.02
77414;BMP280;66486;49.992;19.164;2023-12-20T03:07:59;98103.16;;;7.05
77414;BMP280;66486;49.992;19.164;2023-12-20T03:10:26;98104.81;;;7.22
77414;BMP280;66486;49.992;19.164;2023-12-20T03:12:52;98106.13;;;7.14
77414;BMP280;66486;49.992;19.164;2023-12-20T03:15:18;98105.38;;;7.14
77414;BMP280;66486;49.992;19.164;2023-12-20T03:17:44;98106.88;;;7.15
77414;BMP280;66486;49.992;19.164;2023-12-20T03:20:10;98101.94;;;7.13
77414;BMP280;66486;49.992;19.164;2023-12-20T03:22:36;98098.28;;;7.27
77414;BMP280;66486;49.992;19.164;2023-12-20T03:25:02;98094.50;;;7.24
77414;BMP280;66486;49.992;19.164;2023-12-20T03:27:28;98092.16;;;7.26
77414;BMP280;66486;49.992;19.164;2023-12-20T03:29:54;98105.88;;;7.28
77414;BMP280;66486;49.992;19.164;2023-12-20T03:32:21;98110.44;;;7.31
77414;BMP280;66486;49.992;19.164;2023-12-20T03:34:46;98091.16;;;7.17
77414;BMP280;66486;49.992;19.164;2023-12-20T03:37:14;98107.88;;;7.24
77414;BMP280;66486;49.992;19.164;2023-12-20T03:39:40;98101.94;;;7.13
77414;BMP280;66486;49.992;19.164;2023-12-20T03:42:06;98102.69;;;7.14
77414;BMP280;66486;49.992;19.164;2023-12-20T03:44:32;98102.47;;;7.01
77414;BMP280;66486;49.992;19.164;2023-12-20T03:46:58;98109.00;;;7.00
77414;BMP280;66486;49.992;19.164;2023-12-20T03:49:24;98118.41;;;6.81
77414;BMP280;66486;49.992;19.164;2023-12-20T03:51:50;98115.47;;;6.72
77414;BMP280;66486;49.992;19.164;2023-12-20T03:54:16;98123.44;;;6.76
77414;BMP280;66486;49.992;19.164;2023-12-20T03:56:43;98125.91;;;6.63
77414;BMP280;66486;49.992;19.164;2023-12-20T03:59:08;98125.16;;;6.63
77414;BMP280;66486;49.992;19.164;2023-12-20T04:01:35;98135.75;;;6.70
77414;BMP280;66486;49.992;19.164;2023-12-20T04:04:01;98139.88;;;6.44
77414;BMP280;66486;49.992;19.164;2023-12-20T04:06:30;98141.84;;;6.40
77414;BMP280;66486;49.992;19.164;2023-12-20T04:08:58;98138.94;;;6.24
77414;BMP280;66486;49.992;19.164;2023-12-20T04:11:25;98134.84;;;6.16
77414;BMP280;66486;49.992;19.164;2023-12-20T04:13:51;98138.47;;;5.95
77414;BMP280;66486;49.992;19.164;2023-12-20T04:16:17;98140.06;;;5.89
77414;BMP280;66486;49.992;19.164;2023-12-20T04:18:43;98138.91;;;5.87
77414;BMP280;66486;49.992;19.164;2023-12-20T04:21:10;98135.56;;;5.83
77414;BMP280;66486;49.992;19.164;2023-12-20T04:23:36;98144.31;;;5.83
77414;BMP280;66486;49.992;19.164;2023-12-20T04:26:02;98135.19;;;5.80
77414;BMP280;66486;49.992;19.164;2023-12-20T04:28:28;98139.50;;;5.67
77414;BMP280;66486;49.992;19.164;2023-12-20T04:30:58;98137.59;;;5.68
77414;BMP280;66486;49.992;19.164;2023-12-20T04:33:24;98136.47;;;5.62
77414;BMP280;66486;49.992;19.164;2023-12-20T04:35:50;98142.63;;;5.55
77414;BMP280;66486;49.992;19.164;2023-12-20T04:38:16;98128.59;;;5.44
77414;BMP280;66486;49.992;19.164;2023-12-20T04:40:43;98128.25;;;5.42
77414;BMP280;66486;49.992;19.164;2023-12-20T04:43:09;98127.44;;;5.49
77414;BMP280;66486;49.992;19.164;2023-12-20T04:45:35;98130.44;;;5.54
77414;BMP280;66486;49.992;19.164;2023-12-20T04:48:02;98134.00;;;5.37
77414;BMP280;66486;49.992;19.164;2023-12-20T04:50:28;98127.94;;;5.33
77414;BMP280;66486;49.992;19.164;2023-12-20T04:52:54;98110.13;;;5.23
77414;BMP280;66486;49.992;19.164;2023-12-20T04:55:21;98121.81;;;5.36
77414;BMP280;66486;49.992;19.164;2023-12-20T04:57:47;98103.16;;;5.33
77414;BMP280;66486;49.992;19.164;2023-12-20T05:00:13;98081.63;;;5.09
77414;BMP280;66486;49.992;19.164;2023-12-20T05:02:41;98108.22;;;5.20
77414;BMP280;66486;49.992;19.164;2023-12-20T05:05:07;98105.19;;;5.18
77414;BMP280;66486;49.992;19.164;2023-12-20T05:07:33;98111.69;;;5.10
77414;BMP280;66486;49.992;19.164;2023-12-20T05:09:59;98107.94;;;5.04
77414;BMP280;66486;49.992;19.164;2023-12-20T05:12:25;98107.53;;;5.09
77414;BMP280;66486;49.992;19.164;2023-12-20T05:14:52;98105.22;;;5.11
77414;BMP280;66486;49.992;19.164;2023-12-20T05:17:18;98101.44;;;5.08
77414;BMP280;66486;49.992;19.164;2023-12-20T05:19:46;98110.28;;;4.95
77414;BMP280;66486;49.992;19.164;2023-12-20T05:22:12;98103.72;;;5.06
77414;BMP280;66486;49.992;19.164;2023-12-20T05:24:38;98103.41;;;4.94
77414;BMP280;66486;49.992;19.164;2023-12-20T05:27:04;98097.59;;;5.13
77414;BMP280;66486;49.992;19.164;2023-12-20T05:29:30;98088.44;;;5.14
77414;BMP280;66486;49.992;19.164;2023-12-20T05:31:58;98084.38;;;4.95
77414;BMP280;66486;49.992;19.164;2023-12-20T05:34:24;98094.28;;;4.98
77414;BMP280;66486;49.992;19.164;2023-12-20T05:36:51;98095.41;;;5.01
77414;BMP280;66486;49.992;19.164;2023-12-20T05:39:17;98101.78;;;5.10
77414;BMP280;66486;49.992;19.164;2023-12-20T05:41:43;98100.34;;;4.99
77414;BMP280;66486;49.992;19.164;2023-12-20T05:44:09;98111.41;;;4.97
77414;BMP280;66486;49.992;19.164;2023-12-20T05:46:36;98109.09;;;4.96
77414;BMP280;66486;49.992;19.164;2023-12-20T05:49:02;98100.75;;;4.97
77414;BMP280;66486;49.992;19.164;2023-12-20T05:51:28;98100.78;;;4.90
77414;BMP280;66486;49.992;19.164;2023-12-20T05:53:54;98109.78;;;5.07
77414;BMP280;66486;49.992;19.164;2023-12-20T05:56:20;98114.44;;;4.99
77414;BMP280;66486;49.992;19.164;2023-12-20T05:58:47;98112.16;;;4.98
77414;BMP280;66486;49.992;19.164;2023-12-20T06:01:14;98108.31;;;4.99
77414;BMP280;66486;49.992;19.164;2023-12-20T06:03:46;98114.13;;;4.87
77414;BMP280;66486;49.992;19.164;2023-12-20T06:06:12;98109.59;;;4.84
77414;BMP280;66486;49.992;19.164;2023-12-20T06:08:41;98112.94;;;4.91
77414;BMP280;66486;49.992;19.164;2023-12-20T06:11:09;98112.94;;;4.95
77414;BMP280;66486;49.992;19.164;2023-12-20T06:13:35;98107.97;;;4.93
77414;BMP280;66486;49.992;19.164;2023-12-20T06:16:01;98128.88;;;5.05
77414;BMP280;66486;49.992;19.164;2023-12-20T06:18:27;98119.81;;;4.89
77414;BMP280;66486;49.992;19.164;2023-12-20T06:20:53;98123.19;;;4.96
77414;BMP280;66486;49.992;19.164;2023-12-20T06:23:19;98125.00;;;5.10
77414;BMP280;66486;49.992;19.164;2023-12-20T06:25:46;98115.59;;;4.98
77414;BMP280;66486;49.992;19.164;2023-12-20T06:28:18;98112.53;;;4.96
77414;BMP280;66486;49.992;19.164;2023-12-20T06:30:44;98123.50;;;5.09
77414;BMP280;66486;49.992;19.164;2023-12-20T06:33:16;98120.13;;;5.01
77414;BMP280;66486;49.992;19.164;2023-12-20T06:35:45;98130.38;;;5.06
77414;BMP280;66486;49.992;19.164;2023-12-20T06:38:15;98121.25;;;5.04
77414;BMP280;66486;49.992;19.164;2023-12-20T06:40:41;98136.84;;;5.09
77414;BMP280;66486;49.992;19.164;2023-12-20T06:43:08;98146.06;;;4.94
77414;BMP280;66486;49.992;19.164;2023-12-20T06:45:34;98136.91;;;5.02
77414;BMP280;66486;49.992;19.164;2023-12-20T06:48:03;98149.06;;;4.99
77414;BMP280;66486;49.992;19.164;2023-12-20T06:50:29;98146.03;;;5.01
77414;BMP280;66486;49.992;19.164;2023-12-20T06:53:01;98141.03;;;5.06
77414;BMP280;66486;49.992;19.164;2023-12-20T06:55:36;98151.72;;;4.99
77414;BMP280;66486;49.992;19.164;2023-12-20T06:58:09;98156.69;;;5.01
77414;BMP280;66486;49.992;19.164;2023-12-20T07:00:38;98160.09;;;5.05
77414;BMP280;66486;49.992;19.164;2023-12-20T07:03:07;98161.91;;;5.22
77414;BMP280;66486;49.992;19.164;2023-12-20T07:05:33;98169.84;;;5.29
77414;BMP280;66486;49.992;19.164;2023-12-20T07:08:03;98171.81;;;5.21
77414;BMP280;66486;49.992;19.164;2023-12-20T07:10:29;98179.03;;;5.21
77414;BMP280;66486;49.992;19.164;2023-12-20T07:12:55;98173.72;;;5.14
77414;BMP280;66486;49.992;19.164;2023-12-20T07:15:22;98171.47;;;5.12
77414;BMP280;66486;49.992;19.164;2023-12-20T07:17:49;98168.41;;;5.10
77414;BMP280;66486;49.992;19.164;2023-12-20T07:20:15;98163.09;;;5.07
77414;BMP280;66486;49.992;19.164;2023-12-20T07:22:42;98160.06;;;5.08
77414;BMP280;66486;49.992;19.164;2023-12-20T07:25:08;98162.38;;;5.03
77414;BMP280;66486;49.992;19.164;2023-12-20T07:27:35;98170.00;;;5.01
77414;BMP280;66486;49.992;19.164;2023-12-20T07:30:01;98176.47;;;5.00
77414;BMP280;66486;49.992;19.164;2023-12-20T07:32:27;98171.47;;;5.12
77414;BMP280;66486;49.992;19.164;2023-12-20T07:34:56;98170.72;;;5.08
77414;BMP280;66486;49.992;19.164;2023-12-20T07:37:23;98173.81;;;5.00
77414;BMP280;66486;49.992;19.164;2023-12-20T07:39:49;98170.78;;;5.01
77414;BMP280;66486;49.992;19.164;2023-12-20T07:42:15;98181.81;;;4.93
77414;BMP280;66486;49.992;19.164;2023-12-20T07:44:41;98189.81;;;5.00
77414;BMP280;66486;49.992;19.164;2023-12-20T07:47:08;98181.03;;;4.99
77414;BMP280;66486;49.992;19.164;2023-12-20T07:49:34;98183.69;;;5.03
77414;BMP280;66486;49.992;19.164;2023-12-20T07:52:03;98181.81;;;5.00
77414;BMP280;66486;49.992;19.164;2023-12-20T07:54:32;98185.25;;;4.93
77414;BMP280;66486;49.992;19.164;2023-12-20T07:57:02;98186.00;;;4.97
77414;BMP280;66486;49.992;19.164;2023-12-20T07:59:37;98194.34;;;5.03
77414;BMP280;66486;49.992;19.164;2023-12-20T08:02:03;98192.47;;;4.96
77414;BMP280;66486;49.992;19.164;2023-12-20T08:04:30;98198.22;;;4.91
77414;BMP280;66486;49.992;19.164;2023-12-20T08:06:59;98195.16;;;4.93
77414;BMP280;66486;49.992;19.164;2023-12-20T08:09:26;98192.88;;;4.95
77414;BMP280;66486;49.992;19.164;2023-12-20T08:11:52;98184.88;;;5.02
77414;BMP280;66486;49.992;19.164;2023-12-20T08:14:19;98189.81;;;4.93
77414;BMP280;66486;49.992;19.164;2023-12-20T08:16:45;98190.22;;;4.98
77414;BMP280;66486;49.992;19.164;2023-12-20T08:19:14;98186.78;;;5.01
77414;BMP280;66486;49.992;19.164;2023-12-20T08:21:41;98182.50;;;5.14
77414;BMP280;66486;49.992;19.164;2023-12-20T08:24:07;98178.03;;;4.97
77414;BMP280;66486;49.992;19.164;2023-12-20T08:26:34;98182.22;;;4.95
77414;BMP280;66486;49.992;19.164;2023-12-20T08:29:00;98175.28;;;5.08
77414;BMP280;66486;49.992;19.164;2023-12-20T08:31:28;98185.22;;;5.04
77414;BMP280;66486;49.992;19.164;2023-12-20T08:34:00;98177.59;;;5.02
77414;BMP280;66486;49.992;19.164;2023-12-20T08:36:30;98177.63;;;4.95
77414;BMP280;66486;49.992;19.164;2023-12-20T08:38:56;98174.56;;;5.04
77414;BMP280;66486;49.992;19.164;2023-12-20T08:41:22;98171.56;;;4.98
77414;BMP280;66486;49.992;19.164;2023-12-20T08:43:49;98178.41;;;4.92
77414;BMP280;66486;49.992;19.164;2023-12-20T08:46:15;98171.16;;;5.00
77414;BMP280;66486;49.992;19.164;2023-12-20T08:48:41;98177.25;;;5.00
77414;BMP280;66486;49.992;19.164;2023-12-20T08:51:07;98173.03;;;5.06
77414;BMP280;66486;49.992;19.164;2023-12-20T08:53:35;98178.38;;;4.99
77414;BMP280;66486;49.992;19.164;2023-12-20T08:56:09;98187.91;;;5.04
77414;BMP280;66486;49.992;19.164;2023-12-20T08:58:40;98176.81;;;5.09
77414;BMP280;66486;49.992;19.164;2023-12-20T09:01:06;98181.34;;;5.15
77414;BMP280;66486;49.992;19.164;2023-12-20T09:03:33;98188.25;;;5.02
77414;BMP280;66486;49.992;19.164;2023-12-20T09:06:03;98186.78;;;4.98
77414;BMP280;66486;49.992;19.164;2023-12-20T09:08:29;98182.94;;;4.99
77414;BMP280;66486;49.992;19.164;2023-12-20T09:10:56;98177.25;;;4.97
77414;BMP280;66486;49.992;19.164;2023-12-20T09:13:22;98191.28;;;5.08
77414;BMP280;66486;49.992;19.164;2023-12-20T09:15:57;98182.94;;;5.06
77414;BMP280;66486;49.992;19.164;2023-12-20T09:18:25;98185.25;;;4.93
77414;BMP280;66486;49.992;19.164;2023-12-20T09:20:52;98191.41;;;4.83
77414;BMP280;66486;49.992;19.164;2023-12-20T09:23:18;98187.94;;;4.93
77414;BMP280;66486;49.992;19.164;2023-12-20T09:25:44;98186.03;;;4.94
77414;BMP280;66486;49.992;19.164;2023-12-20T09:28:13;98182.22;;;4.98
77414;BMP280;66486;49.992;19.164;2023-12-20T09:30:43;98180.63;;;5.08
77414;BMP280;66486;49.992;19.164;2023-12-20T09:33:14;98179.47;;;5.09
77414;BMP280;66486;49.992;19.164;2023-12-20T09:35:42;98180.63;;;5.08
77414;BMP280;66486;49.992;19.164;2023-12-20T09:38:08;98181.44;;;5.01
77414;BMP280;66486;49.992;19.164;2023-12-20T09:40:44;98178.38;;;4.96
77414;BMP280;66486;49.992;19.164;2023-12-20T09:43:14;98171.16;;;5.00
77414;BMP280;66486;49.992;19.164;2023-12-20T09:45:45;98162.72;;;5.08
77414;BMP280;66486;49.992;19.164;2023-12-20T09:48:13;98168.03;;;5.15
77414;BMP280;66486;49.992;19.164;2023-12-20T09:50:40;98162.31;;;5.13
77414;BMP280;66486;49.992;19.164;2023-12-20T09:53:08;98158.88;;;5.20
77414;BMP280;66486;49.992;19.164;2023-12-20T09:55:36;98149.00;;;5.17
77414;BMP280;66486;49.992;19.164;2023-12-20T09:58:02;98145.16;;;5.21
77414;BMP280;66486;49.992;19.164;2023-12-20T10:00:31;98142.50;;;5.18
77414;BMP280;66486;49.992;19.164;2023-12-20T10:02:59;98133.72;;;5.17
77414;BMP280;66486;49.992;19.164;2023-12-20T10:05:33;98144.03;;;5.19
77414;BMP280;66486;49.992;19.164;2023-12-20T10:08:02;98139.47;;;5.16
77414;BMP280;66486;49.992;19.164;2023-12-20T10:10:29;98143.56;;;5.31
77414;BMP280;66486;49.992;19.164;2023-12-20T10:13:08;98141.53;;;5.49
77414;BMP280;66486;49.992;19.164;2023-12-20T10:15:37;98141.66;;;5.32
77414;BMP280;66486;49.992;19.164;2023-12-20T10:18:04;98145.44;;;5.38
77414;BMP280;66486;49.992;19.164;2023-12-20T10:20:34;98142.31;;;5.46
77414;BMP280;66486;49.992;19.164;2023-12-20T10:23:00;98134.78;;;5.34
77414;BMP280;66486;49.992;19.164;2023-12-20T10:25:27;98143.94;;;5.30
77414;BMP280;66486;49.992;19.164;2023-12-20T10:28:15;98147.66;;;5.43
77414;BMP280;66486;49.992;19.164;2023-12-20T10:30:44;98136.63;;;5.41
77414;BMP280;66486;49.992;19.164;2023-12-20T10:33:11;98148.19;;;5.23
77414;BMP280;66486;49.992;19.164;2023-12-20T10:35:38;98138.69;;;5.19
77414;BMP280;66486;49.992;19.164;2023-12-20T10:38:05;98142.31;;;5.43
77414;BMP280;66486;49.992;19.164;2023-12-20T10:40:38;98132.88;;;5.38
77414;BMP280;66486;49.992;19.164;2023-12-20T10:43:04;98144.22;;;5.49
77414;BMP280;66486;49.992;19.164;2023-12-20T10:45:32;98147.72;;;5.36
77414;BMP280;66486;49.992;19.164;2023-12-20T10:47:58;98151.84;;;5.44
77414;BMP280;66486;49.992;19.164;2023-12-20T10:50:31;98150.75;;;5.38
77414;BMP280;66486;49.992;19.164;2023-12-20T10:52:58;98149.25;;;5.33
77414;BMP280;66486;49.992;19.164;2023-12-20T10:55:25;98144.31;;;5.28
77414;BMP280;66486;49.992;19.164;2023-12-20T10:58:11;98142.31;;;5.43
77414;BMP280;66486;49.992;19.164;2023-12-20T11:00:43;98142.78;;;5.34
77414;BMP280;66486;49.992;19.164;2023-12-20T11:03:11;98146.13;;;5.45
77414;BMP280;66486;49.992;19.164;2023-12-20T11:06:03;98145.03;;;5.36
77414;BMP280;66486;49.992;19.164;2023-12-20T11:11:31;98143.16;;;5.36
77414;BMP280;66486;49.992;19.164;2023-12-20T11:14:08;98134.81;;;5.27
77414;BMP280;66486;49.992;19.164;2023-12-20T11:16:41;98149.66;;;5.32
77414;BMP280;66486;49.992;19.164;2023-12-20T11:19:11;98146.13;;;5.45
77414;BMP280;66486;49.992;19.164;2023-12-20T11:21:40;98144.31;;;5.28
77414;BMP280;66486;49.992;19.164;2023-12-20T11:24:06;98150.75;;;5.38
77414;BMP280;66486;49.992;19.164;2023-12-20T11:26:33;98149.66;;;5.28
77414;BMP280;66486;49.992;19.164;2023-12-20T11:29:29;98147.69;;;5.39
77414;BMP280;66486;49.992;19.164;2023-12-20T11:32:00;98144.53;;;5.55
77414;BMP280;66486;49.992;19.164;2023-12-20T11:34:28;98152.19;;;5.53
77414;BMP280;66486;49.992;19.164;2023-12-20T11:37:02;98157.25;;;5.33
77414;BMP280;66486;49.992;19.164;2023-12-20T11:39:31;98148.50;;;5.29
77414;BMP280;66486;49.992;19.164;2023-12-20T11:42:05;98148.13;;;5.34
77414;BMP280;66486;49.992;19.164;2023-12-20T11:44:34;98143.72;;;5.61
77414;BMP280;66486;49.992;19.164;2023-12-20T11:47:07;98143.16;;;5.36
77414;BMP280;66486;49.992;19.164;2023-12-20T11:49:36;98137.47;;;5.34
77414;BMP280;66486;49.992;19.164;2023-12-20T11:52:06;98134.03;;;5.34
77414;BMP280;66486;49.992;19.164;2023-12-20T11:54:32;98124.94;;;5.24
77414;BMP280;66486;49.992;19.164;2023-12-20T11:56:59;98129.16;;;5.21
77414;BMP280;66486;49.992;19.164;2023-12-20T11:59:25;98128.78;;;5.23
77414;BMP280;66486;49.992;19.164;2023-12-20T12:01:54;98118.88;;;5.20
77414;BMP280;66486;49.992;19.164;2023-12-20T12:04:26;98117.38;;;5.15
77414;BMP280;66486;49.992;19.164;2023-12-20T12:06:55;98129.09;;;5.29
77414;BMP280;66486;49.992;19.164;2023-12-20T12:09:21;98133.66;;;5.32
77414;BMP280;66486;49.992;19.164;2023-12-20T12:11:47;98125.66;;;5.35
77414;BMP280;66486;49.992;19.164;2023-12-20T12:14:19;98131.38;;;5.27
77414;BMP280;66486;49.992;19.164;2023-12-20T12:16:51;98133.66;;;5.28
77414;BMP280;66486;49.992;19.164;2023-12-20T12:19:23;98141.66;;;5.24
77414;BMP280;66486;49.992;19.164;2023-12-20T12:22:07;98131.00;;;5.28
77414;BMP280;66486;49.992;19.164;2023-12-20T12:24:34;98137.53;;;5.23
77414;BMP280;66486;49.992;19.164;2023-12-20T12:27:01;98131.00;;;5.28
77414;BMP280;66486;49.992;19.164;2023-12-20T12:29:30;98128.31;;;5.28
77414;BMP280;66486;49.992;19.164;2023-12-20T12:31:56;98116.09;;;5.38
77414;BMP280;66486;49.992;19.164;2023-12-20T12:34:23;98120.13;;;5.56
77414;BMP280;66486;49.992;19.164;2023-12-20T12:36:50;98118.38;;;5.39
77414;BMP280;66486;49.992;19.164;2023-12-20T12:39:20;98123.34;;;5.37
77414;BMP280;66486;49.992;19.164;2023-12-20T12:41:47;98123.38;;;5.30
77414;BMP280;66486;49.992;19.164;2023-12-20T12:44:13;98122.47;;;5.51
77414;BMP280;66486;49.992;19.164;2023-12-20T12:46:42;98114.16;;;5.42
77414;BMP280;66486;49.992;19.164;2023-12-20T12:49:08;98116.69;;;5.59
77414;BMP280;66486;49.992;19.164;2023-12-20T12:51:35;98118.69;;;5.48
77414;BMP280;66486;49.992;19.164;2023-12-20T12:54:01;98116.78;;;5.45
77414;BMP280;66486;49.992;19.164;2023-12-20T12:56:28;98107.22;;;5.51
77414;BMP280;66486;49.992;19.164;2023-12-20T12:58:55;98115.66;;;5.43
77414;BMP280;66486;49.992;19.164;2023-12-20T13:01:21;98120.59;;;5.44
77414;BMP280;66486;49.992;19.164;2023-12-20T13:03:47;98118.00;;;5.37
77414;BMP280;66486;49.992;19.164;2023-12-20T13:06:15;98117.56;;;5.46
77414;BMP280;66486;49.992;19.164;2023-12-20T13:08:41;98112.97;;;5.43
77414;BMP280;66486;49.992;19.164;2023-12-20T13:11:11;98119.78;;;5.54
77414;BMP280;66486;49.992;19.164;2023-12-20T13:13:38;98116.47;;;5.40
77414;BMP280;66486;49.992;19.164;2023-12-20T13:16:05;98113.47;;;5.31
77414;BMP280;66486;49.992;19.164;2023-12-20T13:18:31;98123.78;;;5.25
77414;BMP280;66486;49.992;19.164;2023-12-20T13:21:01;98116.91;;;5.28
77414;BMP280;66486;49.992;19.164;2023-12-20T13:23:27;98111.16;;;5.33
77414;BMP280;66486;49.992;19.164;2023-12-20T13:25:54;98114.19;;;5.38
77414;BMP280;66486;49.992;19.164;2023-12-20T13:28:23;98110.41;;;5.32
77414;BMP280;66486;49.992;19.164;2023-12-20T13:30:53;98106.59;;;5.33
77414;BMP280;66486;49.992;19.164;2023-12-20T13:33:19;98094.44;;;5.29
77414;BMP280;66486;49.992;19.164;2023-12-20T13:35:46;98095.16;;;5.36
77414;BMP280;66486;49.992;19.164;2023-12-20T13:38:18;98090.16;;;5.42
77414;BMP280;66486;49.992;19.164;2023-12-20T13:40:45;98104.22;;;5.46
77414;BMP280;66486;49.992;19.164;2023-12-20T13:43:11;98105.44;;;5.38
77414;BMP280;66486;49.992;19.164;2023-12-20T13:45:38;98100.41;;;5.43
77414;BMP280;66486;49.992;19.164;2023-12-20T13:48:05;98109.47;;;5.56
77414;BMP280;66486;49.992;19.164;2023-12-20T13:50:33;98101.88;;;5.51
77414;BMP280;66486;49.992;19.164;2023-12-20T13:52:59;98110.00;;;5.37
77414;BMP280;66486;49.992;19.164;2023-12-20T13:55:26;98111.81;;;5.47
77414;BMP280;66486;49.992;19.164;2023-12-20T13:57:53;98102.41;;;5.32
77414;BMP280;66486;49.992;19.164;2023-12-20T14:00:20;98108.47;;;5.36
77414;BMP280;66486;49.992;19.164;2023-12-20T14:02:46;98105.13;;;5.25
77414;BMP280;66486;49.992;19.164;2023-12-20T14:05:15;98114.34;;;5.10
77414;BMP280;66486;49.992;19.164;2023-12-20T14:07:45;98115.88;;;5.07
77414;BMP280;66486;49.992;19.164;2023-12-20T14:10:13;98106.06;;;5.01
77414;BMP280;66486;49.992;19.164;2023-12-20T14:12:42;98113.22;;;5.11